sensor_id;sensor_type;location;lat;lon;timestamp;P1;durP1;ratioP1;P2;durP2;ratioP2
76113;SDS011;64845;53.086;5.834;2023-04-03T00:00:48;3.83;;;1.40;;
76113;SDS011;64845;53.086;5.834;2023-04-03T00:03:14;2.25;;;1.40;;
76113;SDS011;64845;53.086;5.834;2023-04-03T00:05:40;3.63;;;1.45;;
76113;SDS011;64845;53.086;5.834;2023-04-03T00:08:06;2.83;;;1.25;;
76113;SDS011;64845;53.086;5.834;2023-04-03T00:10:32;2.63;;;1.20;;
76113;SDS011;64845;53.086;5.834;2023-04-03T00:12:59;2.53;;;1.10;;
76113;SDS011;64845;53.086;5.834;2023-04-03T00:15:24;1.35;;;0.98;;
76113;SDS011;64845;53.086;5.834;2023-04-03T00:17:50;2.78;;;1.10;;
76113;SDS011;64845;53.086;5.834;2023-04-03T00:20:15;1.65;;;1.40;;
76113;SDS011;64845;53.086;5.834;2023-04-03T00:22:40;1.92;;;1.20;;
76113;SDS011;64845;53.086;5.834;2023-04-03T00:25:06;7.35;;;1.33;;
76113;SDS011;64845;53.086;5.834;2023-04-03T00:27:32;2.45;;;0.98;;
76113;SDS011;64845;53.086;5.834;2023-04-03T00:29:57;1.90;;;0.95;;
76113;SDS011;64845;53.086;5.834;2023-04-03T00:32:23;3.13;;;1.10;;
76113;SDS011;64845;53.086;5.834;2023-04-03T00:34:48;3.10;;;1.02;;
76113;SDS011;64845;53.086;5.834;2023-04-03T00:37:13;2.92;;;0.90;;
76113;SDS011;64845;53.086;5.834;2023-04-03T00:39:39;3.38;;;0.90;;
76113;SDS011;64845;53.086;5.834;2023-04-03T00:42:04;0.73;;;0.73;;
76113;SDS011;64845;53.086;5.834;2023-04-03T00:46:58;3.65;;;1.20;;
76113;SDS011;64845;53.086;5.834;2023-04-03T00:49:25;1.73;;;0.82;;
76113;SDS011;64845;53.086;5.834;2023-04-03T00:51:51;2.35;;;0.90;;
76113;SDS011;64845;53.086;5.834;2023-04-03T00:54:17;4.43;;;0.80;;
76113;SDS011;64845;53.086;5.834;2023-04-03T00:56:43;2.17;;;0.95;;
76113;SDS011;64845;53.086;5.834;2023-04-03T00:59:10;2.25;;;0.80;;
76113;SDS011;64845;53.086;5.834;2023-04-03T01:01:39;1.57;;;1.00;;
76113;SDS011;64845;53.086;5.834;2023-04-03T01:04:24;5.20;;;0.85;;
76113;SDS011;64845;53.086;5.834;2023-04-03T01:06:52;3.17;;;1.45;;
76113;SDS011;64845;53.086;5.834;2023-04-03T01:09:21;2.17;;;0.80;;
76113;SDS011;64845;53.086;5.834;2023-04-03T01:11:47;2.28;;;0.80;;
76113;SDS011;64845;53.086;5.834;2023-04-03T01:14:13;3.08;;;1.00;;
76113;SDS011;64845;53.086;5.834;2023-04-03T01:16:38;2.95;;;1.02;;
76113;SDS011;64845;53.086;5.834;2023-04-03T01:19:05;1.80;;;1.00;;
76113;SDS011;64845;53.086;5.834;2023-04-03T01:24:37;2.80;;;1.20;;
76113;SDS011;64845;53.086;5.834;2023-04-03T01:27:06;3.08;;;1.13;;
76113;SDS011;64845;53.086;5.834;2023-04-03T01:29:35;5.22;;;1.45;;
76113;SDS011;64845;53.086;5.834;2023-04-03T01:32:02;2.97;;;1.80;;
76113;SDS011;64845;53.086;5.834;2023-04-03T01:34:28;3.22;;;1.42;;
76113;SDS011;64845;53.086;5.834;2023-04-03T01:36:54;4.70;;;1.33;;
76113;SDS011;64845;53.086;5.834;2023-04-03T01:39:19;2.25;;;1.00;;
76113;SDS011;64845;53.086;5.834;2023-04-03T01:41:46;1.38;;;0.80;;
76113;SDS011;64845;53.086;5.834;2023-04-03T01:44:11;3.53;;;1.10;;
76113;SDS011;64845;53.086;5.834;2023-04-03T01:46:37;3.25;;;0.93;;
76113;SDS011;64845;53.086;5.834;2023-04-03T01:49:03;3.08;;;1.10;;
76113;SDS011;64845;53.086;5.834;2023-04-03T01:51:29;2.90;;;1.05;;
76113;SDS011;64845;53.086;5.834;2023-04-03T01:53:55;2.53;;;1.00;;
76113;SDS011;64845;53.086;5.834;2023-04-03T01:56:20;4.28;;;1.10;;
76113;SDS011;64845;53.086;5.834;2023-04-03T01:58:46;1.90;;;0.90;;
76113;SDS011;64845;53.086;5.834;2023-04-03T02:01:11;2.40;;;1.00;;
76113;SDS011;64845;53.086;5.834;2023-04-03T02:03:37;3.33;;;1.10;;
76113;SDS011;64845;53.086;5.834;2023-04-03T02:06:02;5.75;;;1.25;;
76113;SDS011;64845;53.086;5.834;2023-04-03T02:08:28;2.72;;;1.17;;
76113;SDS011;64845;53.086;5.834;2023-04-03T02:10:53;5.70;;;1.38;;
76113;SDS011;64845;53.086;5.834;2023-04-03T02:13:18;3.08;;;1.10;;
76113;SDS011;64845;53.086;5.834;2023-04-03T02:15:44;2.45;;;1.10;;
76113;SDS011;64845;53.086;5.834;2023-04-03T02:18:10;2.13;;;1.08;;
76113;SDS011;64845;53.086;5.834;2023-04-03T02:20:36;2.10;;;1.10;;
76113;SDS011;64845;53.086;5.834;2023-04-03T02:23:02;4.57;;;1.38;;
76113;SDS011;64845;53.086;5.834;2023-04-03T02:25:28;4.07;;;1.35;;
76113;SDS011;64845;53.086;5.834;2023-04-03T02:27:55;3.55;;;1.40;;
76113;SDS011;64845;53.086;5.834;2023-04-03T02:30:20;2.60;;;1.13;;
76113;SDS011;64845;53.086;5.834;2023-04-03T02:32:46;4.57;;;1.15;;
76113;SDS011;64845;53.086;5.834;2023-04-03T02:35:11;4.47;;;1.17;;
76113;SDS011;64845;53.086;5.834;2023-04-03T02:37:37;5.40;;;1.33;;
76113;SDS011;64845;53.086;5.834;2023-04-03T02:40:03;3.05;;;1.30;;
76113;SDS011;64845;53.086;5.834;2023-04-03T02:42:29;2.80;;;1.38;;
76113;SDS011;64845;53.086;5.834;2023-04-03T02:44:55;2.65;;;1.20;;
76113;SDS011;64845;53.086;5.834;2023-04-03T02:47:20;3.92;;;1.30;;
76113;SDS011;64845;53.086;5.834;2023-04-03T02:49:46;4.93;;;1.40;;
76113;SDS011;64845;53.086;5.834;2023-04-03T02:52:14;3.47;;;1.33;;
76113;SDS011;64845;53.086;5.834;2023-04-03T02:54:40;6.32;;;1.45;;
76113;SDS011;64845;53.086;5.834;2023-04-03T02:57:06;6.60;;;1.25;;
76113;SDS011;64845;53.086;5.834;2023-04-03T02:59:34;4.10;;;1.33;;
76113;SDS011;64845;53.086;5.834;2023-04-03T03:02:00;2.80;;;1.10;;
76113;SDS011;64845;53.086;5.834;2023-04-03T03:04:25;2.10;;;1.00;;
76113;SDS011;64845;53.086;5.834;2023-04-03T03:06:51;2.78;;;1.35;;
76113;SDS011;64845;53.086;5.834;2023-04-03T03:09:17;5.72;;;1.55;;
76113;SDS011;64845;53.086;5.834;2023-04-03T03:11:42;2.72;;;1.23;;
76113;SDS011;64845;53.086;5.834;2023-04-03T03:14:08;3.28;;;1.50;;
76113;SDS011;64845;53.086;5.834;2023-04-03T03:16:33;6.15;;;1.63;;
76113;SDS011;64845;53.086;5.834;2023-04-03T03:18:59;5.18;;;1.40;;
76113;SDS011;64845;53.086;5.834;2023-04-03T03:21:24;2.78;;;1.45;;
76113;SDS011;64845;53.086;5.834;2023-04-03T03:23:50;4.30;;;1.67;;
76113;SDS011;64845;53.086;5.834;2023-04-03T03:26:15;4.43;;;1.55;;
76113;SDS011;64845;53.086;5.834;2023-04-03T03:28:41;3.67;;;1.50;;
76113;SDS011;64845;53.086;5.834;2023-04-03T03:31:07;6.07;;;1.40;;
76113;SDS011;64845;53.086;5.834;2023-04-03T03:33:33;4.65;;;1.60;;
76113;SDS011;64845;53.086;5.834;2023-04-03T03:35:59;5.68;;;1.75;;
76113;SDS011;64845;53.086;5.834;2023-04-03T03:38:25;2.97;;;1.42;;
76113;SDS011;64845;53.086;5.834;2023-04-03T03:40:50;3.10;;;1.30;;
76113;SDS011;64845;53.086;5.834;2023-04-03T03:43:16;3.25;;;1.45;;
76113;SDS011;64845;53.086;5.834;2023-04-03T03:45:43;3.88;;;1.60;;
76113;SDS011;64845;53.086;5.834;2023-04-03T03:48:09;3.72;;;1.20;;
76113;SDS011;64845;53.086;5.834;2023-04-03T03:50:34;4.32;;;1.30;;
76113;SDS011;64845;53.086;5.834;2023-04-03T03:53:00;6.00;;;1.48;;
76113;SDS011;64845;53.086;5.834;2023-04-03T03:55:25;4.57;;;1.27;;
76113;SDS011;64845;53.086;5.834;2023-04-03T03:57:51;4.30;;;1.40;;
76113;SDS011;64845;53.086;5.834;2023-04-03T04:00:17;4.80;;;1.50;;
76113;SDS011;64845;53.086;5.834;2023-04-03T04:02:42;2.65;;;1.25;;
76113;SDS011;64845;53.086;5.834;2023-04-03T04:05:08;5.00;;;1.80;;
76113;SDS011;64845;53.086;5.834;2023-04-03T04:07:34;3.53;;;1.55;;
76113;SDS011;64845;53.086;5.834;2023-04-03T04:09:59;5.25;;;1.60;;
76113;SDS011;64845;53.086;5.834;2023-04-03T04:12:25;4.68;;;1.70;;
76113;SDS011;64845;53.086;5.834;2023-04-03T04:14:50;5.40;;;1.92;;
76113;SDS011;64845;53.086;5.834;2023-04-03T04:17:16;5.55;;;1.50;;
76113;SDS011;64845;53.086;5.834;2023-04-03T04:19:41;3.78;;;1.75;;
76113;SDS011;64845;53.086;5.834;2023-04-03T04:22:06;5.18;;;1.50;;
76113;SDS011;64845;53.086;5.834;2023-04-03T04:24:32;5.13;;;1.60;;
76113;SDS011;64845;53.086;5.834;2023-04-03T04:26:57;5.30;;;1.65;;
76113;SDS011;64845;53.086;5.834;2023-04-03T04:29:23;5.03;;;1.45;;
76113;SDS011;64845;53.086;5.834;2023-04-03T04:31:48;5.72;;;1.55;;
76113;SDS011;64845;53.086;5.834;2023-04-03T04:34:13;4.10;;;1.58;;
76113;SDS011;64845;53.086;5.834;2023-04-03T04:36:39;5.95;;;1.65;;
76113;SDS011;64845;53.086;5.834;2023-04-03T04:39:05;4.13;;;1.50;;
76113;SDS011;64845;53.086;5.834;2023-04-03T04:41:30;5.35;;;1.52;;
76113;SDS011;64845;53.086;5.834;2023-04-03T04:43:56;3.85;;;1.48;;
76113;SDS011;64845;53.086;5.834;2023-04-03T04:46:22;3.50;;;1.60;;
76113;SDS011;64845;53.086;5.834;2023-04-03T04:48:47;2.17;;;1.60;;
76113;SDS011;64845;53.086;5.834;2023-04-03T04:51:13;6.65;;;1.38;;
76113;SDS011;64845;53.086;5.834;2023-04-03T04:53:39;2.53;;;1.40;;
76113;SDS011;64845;53.086;5.834;2023-04-03T04:56:06;4.15;;;1.60;;
76113;SDS011;64845;53.086;5.834;2023-04-03T04:58:31;5.43;;;1.73;;
76113;SDS011;64845;53.086;5.834;2023-04-03T05:01:04;7.20;;;1.60;;
76113;SDS011;64845;53.086;5.834;2023-04-03T05:03:31;4.45;;;1.42;;
76113;SDS011;64845;53.086;5.834;2023-04-03T05:05:56;4.53;;;1.70;;
76113;SDS011;64845;53.086;5.834;2023-04-03T05:08:22;4.13;;;1.60;;
76113;SDS011;64845;53.086;5.834;2023-04-03T05:10:47;5.68;;;1.80;;
76113;SDS011;64845;53.086;5.834;2023-04-03T05:13:13;4.00;;;1.60;;
76113;SDS011;64845;53.086;5.834;2023-04-03T05:15:39;8.27;;;2.20;;
76113;SDS011;64845;53.086;5.834;2023-04-03T05:18:05;3.92;;;1.67;;
76113;SDS011;64845;53.086;5.834;2023-04-03T05:20:31;5.13;;;2.00;;
76113;SDS011;64845;53.086;5.834;2023-04-03T05:22:57;4.95;;;2.13;;
76113;SDS011;64845;53.086;5.834;2023-04-03T05:25:22;5.05;;;1.85;;
76113;SDS011;64845;53.086;5.834;2023-04-03T05:27:47;6.45;;;1.98;;
76113;SDS011;64845;53.086;5.834;2023-04-03T05:30:13;3.53;;;1.60;;
76113;SDS011;64845;53.086;5.834;2023-04-03T05:32:39;4.25;;;1.58;;
76113;SDS011;64845;53.086;5.834;2023-04-03T05:35:05;7.20;;;2.40;;
76113;SDS011;64845;53.086;5.834;2023-04-03T05:37:31;4.05;;;2.03;;
76113;SDS011;64845;53.086;5.834;2023-04-03T05:39:56;5.75;;;1.90;;
76113;SDS011;64845;53.086;5.834;2023-04-03T05:42:22;5.80;;;2.13;;
76113;SDS011;64845;53.086;5.834;2023-04-03T05:44:48;7.45;;;1.80;;
76113;SDS011;64845;53.086;5.834;2023-04-03T05:47:15;4.32;;;2.10;;
76113;SDS011;64845;53.086;5.834;2023-04-03T05:49:40;7.18;;;1.92;;
76113;SDS011;64845;53.086;5.834;2023-04-03T05:52:10;4.88;;;1.98;;
76113;SDS011;64845;53.086;5.834;2023-04-03T05:54:46;4.38;;;1.75;;
76113;SDS011;64845;53.086;5.834;2023-04-03T05:57:13;4.43;;;1.77;;
76113;SDS011;64845;53.086;5.834;2023-04-03T05:59:39;7.72;;;2.20;;
76113;SDS011;64845;53.086;5.834;2023-04-03T06:02:04;6.72;;;2.00;;
76113;SDS011;64845;53.086;5.834;2023-04-03T06:04:30;5.93;;;1.95;;
76113;SDS011;64845;53.086;5.834;2023-04-03T06:06:56;6.53;;;1.90;;
76113;SDS011;64845;53.086;5.834;2023-04-03T06:09:24;4.18;;;2.17;;
76113;SDS011;64845;53.086;5.834;2023-04-03T06:11:51;6.07;;;1.77;;
76113;SDS011;64845;53.086;5.834;2023-04-03T06:14:18;4.50;;;1.83;;
76113;SDS011;64845;53.086;5.834;2023-04-03T06:16:44;5.47;;;2.00;;
76113;SDS011;64845;53.086;5.834;2023-04-03T06:19:10;7.10;;;2.30;;
76113;SDS011;64845;53.086;5.834;2023-04-03T06:21:37;5.70;;;2.50;;
76113;SDS011;64845;53.086;5.834;2023-04-03T06:24:04;4.38;;;1.58;;
76113;SDS011;64845;53.086;5.834;2023-04-03T06:26:30;5.03;;;1.92;;
76113;SDS011;64845;53.086;5.834;2023-04-03T06:28:56;5.25;;;1.70;;
76113;SDS011;64845;53.086;5.834;2023-04-03T06:31:22;5.68;;;1.90;;
76113;SDS011;64845;53.086;5.834;2023-04-03T06:33:47;4.15;;;1.70;;
76113;SDS011;64845;53.086;5.834;2023-04-03T06:36:13;7.10;;;2.10;;
76113;SDS011;64845;53.086;5.834;2023-04-03T06:38:38;5.60;;;1.65;;
76113;SDS011;64845;53.086;5.834;2023-04-03T06:41:04;10.23;;;1.95;;
76113;SDS011;64845;53.086;5.834;2023-04-03T06:43:29;6.07;;;2.05;;
76113;SDS011;64845;53.086;5.834;2023-04-03T06:45:56;5.00;;;1.80;;
76113;SDS011;64845;53.086;5.834;2023-04-03T06:48:22;7.65;;;1.90;;
76113;SDS011;64845;53.086;5.834;2023-04-03T06:50:48;5.90;;;1.92;;
76113;SDS011;64845;53.086;5.834;2023-04-03T06:53:13;5.78;;;1.85;;
76113;SDS011;64845;53.086;5.834;2023-04-03T06:55:39;3.15;;;1.80;;
76113;SDS011;64845;53.086;5.834;2023-04-03T06:58:06;5.57;;;1.88;;
76113;SDS011;64845;53.086;5.834;2023-04-03T07:00:31;8.60;;;2.72;;
76113;SDS011;64845;53.086;5.834;2023-04-03T07:02:57;4.38;;;2.45;;
76113;SDS011;64845;53.086;5.834;2023-04-03T07:05:22;5.22;;;1.88;;
76113;SDS011;64845;53.086;5.834;2023-04-03T07:07:48;7.22;;;1.70;;
76113;SDS011;64845;53.086;5.834;2023-04-03T07:10:15;4.13;;;1.50;;
76113;SDS011;64845;53.086;5.834;2023-04-03T07:12:41;5.72;;;2.10;;
76113;SDS011;64845;53.086;5.834;2023-04-03T07:15:07;3.85;;;2.13;;
76113;SDS011;64845;53.086;5.834;2023-04-03T07:17:33;11.30;;;1.90;;
76113;SDS011;64845;53.086;5.834;2023-04-03T07:19:58;4.65;;;2.10;;
76113;SDS011;64845;53.086;5.834;2023-04-03T07:22:24;3.70;;;1.65;;
76113;SDS011;64845;53.086;5.834;2023-04-03T07:24:49;6.68;;;2.10;;
76113;SDS011;64845;53.086;5.834;2023-04-03T07:27:15;4.47;;;2.00;;
76113;SDS011;64845;53.086;5.834;2023-04-03T07:29:42;5.07;;;1.90;;
76113;SDS011;64845;53.086;5.834;2023-04-03T07:32:09;5.38;;;1.73;;
76113;SDS011;64845;53.086;5.834;2023-04-03T07:34:35;7.05;;;1.58;;
76113;SDS011;64845;53.086;5.834;2023-04-03T07:37:00;4.60;;;1.90;;
76113;SDS011;64845;53.086;5.834;2023-04-03T07:39:27;4.20;;;1.83;;
76113;SDS011;64845;53.086;5.834;2023-04-03T07:41:53;7.72;;;2.00;;
76113;SDS011;64845;53.086;5.834;2023-04-03T07:44:20;9.75;;;2.08;;
76113;SDS011;64845;53.086;5.834;2023-04-03T07:46:46;5.03;;;1.77;;
76113;SDS011;64845;53.086;5.834;2023-04-03T07:49:11;8.38;;;1.95;;
76113;SDS011;64845;53.086;5.834;2023-04-03T07:51:37;4.07;;;1.60;;
76113;SDS011;64845;53.086;5.834;2023-04-03T07:54:02;5.70;;;2.03;;
76113;SDS011;64845;53.086;5.834;2023-04-03T07:56:28;6.20;;;1.63;;
76113;SDS011;64845;53.086;5.834;2023-04-03T07:58:54;5.40;;;1.77;;
76113;SDS011;64845;53.086;5.834;2023-04-03T08:01:20;5.38;;;1.60;;
76113;SDS011;64845;53.086;5.834;2023-04-03T08:03:45;6.13;;;1.92;;
76113;SDS011;64845;53.086;5.834;2023-04-03T08:06:11;9.48;;;2.17;;
76113;SDS011;64845;53.086;5.834;2023-04-03T08:08:37;5.05;;;1.73;;
76113;SDS011;64845;53.086;5.834;2023-04-03T08:11:03;5.28;;;1.65;;
76113;SDS011;64845;53.086;5.834;2023-04-03T08:13:30;5.97;;;2.13;;
76113;SDS011;64845;53.086;5.834;2023-04-03T08:15:56;3.55;;;1.60;;
76113;SDS011;64845;53.086;5.834;2023-04-03T08:18:24;8.32;;;1.90;;
76113;SDS011;64845;53.086;5.834;2023-04-03T08:20:51;6.43;;;1.70;;
76113;SDS011;64845;53.086;5.834;2023-04-03T08:23:17;5.15;;;1.80;;
76113;SDS011;64845;53.086;5.834;2023-04-03T08:25:43;6.15;;;1.80;;
76113;SDS011;64845;53.086;5.834;2023-04-03T08:28:10;5.22;;;1.60;;
76113;SDS011;64845;53.086;5.834;2023-04-03T08:30:38;3.08;;;1.30;;
76113;SDS011;64845;53.086;5.834;2023-04-03T08:33:05;3.50;;;1.52;;
76113;SDS011;64845;53.086;5.834;2023-04-03T08:35:31;6.00;;;1.80;;
76113;SDS011;64845;53.086;5.834;2023-04-03T08:37:56;3.78;;;1.60;;
76113;SDS011;64845;53.086;5.834;2023-04-03T08:40:22;4.15;;;1.92;;
76113;SDS011;64845;53.086;5.834;2023-04-03T08:47:54;4.20;;;2.03;;
76113;SDS011;64845;53.086;5.834;2023-04-03T08:50:23;5.28;;;1.23;;
76113;SDS011;64845;53.086;5.834;2023-04-03T08:52:55;3.80;;;1.35;;
76113;SDS011;64845;53.086;5.834;2023-04-03T08:55:26;4.85;;;1.40;;
76113;SDS011;64845;53.086;5.834;2023-04-03T08:57:59;4.03;;;1.65;;
76113;SDS011;64845;53.086;5.834;2023-04-03T09:00:28;4.25;;;1.30;;
76113;SDS011;64845;53.086;5.834;2023-04-03T09:02:59;2.40;;;1.30;;
76113;SDS011;64845;53.086;5.834;2023-04-03T09:10:46;3.03;;;1.40;;
76113;SDS011;64845;53.086;5.834;2023-04-03T09:15:43;2.90;;;1.20;;
76113;SDS011;64845;53.086;5.834;2023-04-03T09:18:13;7.38;;;1.40;;
76113;SDS011;64845;53.086;5.834;2023-04-03T09:20:57;2.22;;;1.10;;
76113;SDS011;64845;53.086;5.834;2023-04-03T09:23:41;2.10;;;1.10;;
76113;SDS011;64845;53.086;5.834;2023-04-03T09:26:24;3.88;;;1.08;;
76113;SDS011;64845;53.086;5.834;2023-04-03T09:28:54;2.70;;;1.17;;
76113;SDS011;64845;53.086;5.834;2023-04-03T09:31:25;3.85;;;1.35;;
76113;SDS011;64845;53.086;5.834;2023-04-03T09:33:54;4.13;;;1.33;;
76113;SDS011;64845;53.086;5.834;2023-04-03T09:36:44;3.50;;;1.40;;
76113;SDS011;64845;53.086;5.834;2023-04-03T09:39:13;2.58;;;1.10;;
76113;SDS011;64845;53.086;5.834;2023-04-03T09:41:54;3.25;;;1.20;;
76113;SDS011;64845;53.086;5.834;2023-04-03T09:44:48;2.15;;;1.00;;
76113;SDS011;64845;53.086;5.834;2023-04-03T09:47:29;3.40;;;1.50;;
76113;SDS011;64845;53.086;5.834;2023-04-03T09:52:39;2.38;;;0.90;;
76113;SDS011;64845;53.086;5.834;2023-04-03T09:55:22;2.90;;;1.20;;
76113;SDS011;64845;53.086;5.834;2023-04-03T09:57:54;4.13;;;0.90;;
76113;SDS011;64845;53.086;5.834;2023-04-03T10:00:28;3.60;;;1.05;;
76113;SDS011;64845;53.086;5.834;2023-04-03T10:02:58;2.20;;;1.00;;
76113;SDS011;64845;53.086;5.834;2023-04-03T10:05:30;1.48;;;0.90;;
76113;SDS011;64845;53.086;5.834;2023-04-03T10:10:38;2.55;;;1.00;;
76113;SDS011;64845;53.086;5.834;2023-04-03T10:13:09;1.27;;;0.80;;
76113;SDS011;64845;53.086;5.834;2023-04-03T10:15:44;4.50;;;1.02;;
76113;SDS011;64845;53.086;5.834;2023-04-03T10:20:59;2.88;;;1.00;;
76113;SDS011;64845;53.086;5.834;2023-04-03T10:23:45;5.10;;;1.20;;
76113;SDS011;64845;53.086;5.834;2023-04-03T10:31:43;2.60;;;1.10;;
76113;SDS011;64845;53.086;5.834;2023-04-03T10:42:24;1.38;;;0.82;;
76113;SDS011;64845;53.086;5.834;2023-04-03T10:53:19;1.92;;;0.95;;
76113;SDS011;64845;53.086;5.834;2023-04-03T10:56:01;2.75;;;0.82;;
76113;SDS011;64845;53.086;5.834;2023-04-03T10:58:34;3.20;;;0.88;;
76113;SDS011;64845;53.086;5.834;2023-04-03T11:01:14;3.75;;;1.30;;
76113;SDS011;64845;53.086;5.834;2023-04-03T11:03:45;4.20;;;1.20;;
76113;SDS011;64845;53.086;5.834;2023-04-03T11:06:15;2.20;;;0.98;;
76113;SDS011;64845;53.086;5.834;2023-04-03T11:11:11;4.32;;;1.08;;
76113;SDS011;64845;53.086;5.834;2023-04-03T11:13:43;1.70;;;0.80;;
76113;SDS011;64845;53.086;5.834;2023-04-03T11:16:26;3.25;;;0.90;;
76113;SDS011;64845;53.086;5.834;2023-04-03T11:19:04;2.75;;;1.00;;
76113;SDS011;64845;53.086;5.834;2023-04-03T11:21:40;5.13;;;1.10;;
76113;SDS011;64845;53.086;5.834;2023-04-03T11:24:16;1.45;;;0.90;;
76113;SDS011;64845;53.086;5.834;2023-04-03T11:26:46;2.42;;;0.88;;
76113;SDS011;64845;53.086;5.834;2023-04-03T11:29:17;2.70;;;1.10;;
76113;SDS011;64845;53.086;5.834;2023-04-03T11:37:01;2.80;;;1.10;;
76113;SDS011;64845;53.086;5.834;2023-04-03T11:39:36;4.30;;;1.00;;
76113;SDS011;64845;53.086;5.834;2023-04-03T11:44:48;3.35;;;1.02;;
76113;SDS011;64845;53.086;5.834;2023-04-03T11:47:43;2.25;;;0.68;;
76113;SDS011;64845;53.086;5.834;2023-04-03T12:06:42;3.35;;;1.00;;
76113;SDS011;64845;53.086;5.834;2023-04-03T12:08:43;2.95;;;1.15;;
76113;SDS011;64845;53.086;5.834;2023-04-03T12:16:21;1.83;;;0.90;;
76113;SDS011;64845;53.086;5.834;2023-04-03T12:26:26;3.05;;;0.98;;
76113;SDS011;64845;53.086;5.834;2023-04-03T12:28:55;1.10;;;0.80;;
76113;SDS011;64845;53.086;5.834;2023-04-03T12:31:22;1.83;;;1.00;;
76113;SDS011;64845;53.086;5.834;2023-04-03T12:34:01;3.50;;;1.20;;
76113;SDS011;64845;53.086;5.834;2023-04-03T12:42:40;4.75;;;0.95;;
76113;SDS011;64845;53.086;5.834;2023-04-03T12:45:16;1.23;;;0.82;;
76113;SDS011;64845;53.086;5.834;2023-04-03T12:47:45;1.80;;;1.15;;
76113;SDS011;64845;53.086;5.834;2023-04-03T12:50:18;2.50;;;1.10;;
76113;SDS011;64845;53.086;5.834;2023-04-03T12:55:30;4.75;;;1.10;;
76113;SDS011;64845;53.086;5.834;2023-04-03T12:57:55;2.35;;;0.82;;
76113;SDS011;64845;53.086;5.834;2023-04-03T13:00:32;2.97;;;0.80;;
76113;SDS011;64845;53.086;5.834;2023-04-03T13:03:01;2.72;;;0.80;;
76113;SDS011;64845;53.086;5.834;2023-04-03T13:05:28;1.88;;;1.00;;
76113;SDS011;64845;53.086;5.834;2023-04-03T13:08:05;2.63;;;1.10;;
76113;SDS011;64845;53.086;5.834;2023-04-03T13:10:42;3.00;;;1.10;;
76113;SDS011;64845;53.086;5.834;2023-04-03T13:13:14;3.67;;;1.17;;
76113;SDS011;64845;53.086;5.834;2023-04-03T13:15:42;3.50;;;1.30;;
76113;SDS011;64845;53.086;5.834;2023-04-03T13:18:23;2.47;;;0.95;;
76113;SDS011;64845;53.086;5.834;2023-04-03T13:23:54;2.40;;;1.05;;
76113;SDS011;64845;53.086;5.834;2023-04-03T13:26:24;2.90;;;1.00;;
76113;SDS011;64845;53.086;5.834;2023-04-03T13:28:54;1.33;;;0.80;;
76113;SDS011;64845;53.086;5.834;2023-04-03T13:31:30;2.53;;;1.02;;
76113;SDS011;64845;53.086;5.834;2023-04-03T13:34:03;3.78;;;1.30;;
76113;SDS011;64845;53.086;5.834;2023-04-03T13:36:41;2.78;;;1.05;;
76113;SDS011;64845;53.086;5.834;2023-04-03T13:41:36;3.35;;;1.00;;
76113;SDS011;64845;53.086;5.834;2023-04-03T13:46:50;3.50;;;1.20;;
76113;SDS011;64845;53.086;5.834;2023-04-03T13:49:39;2.85;;;1.17;;
76113;SDS011;64845;53.086;5.834;2023-04-03T13:54:47;3.13;;;1.40;;
76113;SDS011;64845;53.086;5.834;2023-04-03T13:57:19;2.67;;;1.10;;
76113;SDS011;64845;53.086;5.834;2023-04-03T13:59:45;1.52;;;1.10;;
76113;SDS011;64845;53.086;5.834;2023-04-03T14:02:21;4.82;;;1.13;;
76113;SDS011;64845;53.086;5.834;2023-04-03T14:04:59;1.77;;;1.05;;
76113;SDS011;64845;53.086;5.834;2023-04-03T14:07:26;2.95;;;1.10;;
76113;SDS011;64845;53.086;5.834;2023-04-03T14:09:54;2.88;;;1.20;;
76113;SDS011;64845;53.086;5.834;2023-04-03T14:14:50;1.98;;;1.00;;
76113;SDS011;64845;53.086;5.834;2023-04-03T14:17:25;2.28;;;0.90;;
76113;SDS011;64845;53.086;5.834;2023-04-03T14:19:51;3.47;;;1.08;;
76113;SDS011;64845;53.086;5.834;2023-04-03T14:22:21;3.13;;;1.30;;
76113;SDS011;64845;53.086;5.834;2023-04-03T14:24:53;2.53;;;1.00;;
76113;SDS011;64845;53.086;5.834;2023-04-03T14:27:24;3.38;;;1.20;;
76113;SDS011;64845;53.086;5.834;2023-04-03T14:29:52;4.22;;;1.10;;
76113;SDS011;64845;53.086;5.834;2023-04-03T14:32:19;3.17;;;1.27;;
76113;SDS011;64845;53.086;5.834;2023-04-03T14:34:46;2.90;;;1.30;;
76113;SDS011;64845;53.086;5.834;2023-04-03T14:37:14;2.95;;;1.05;;
76113;SDS011;64845;53.086;5.834;2023-04-03T14:39:48;3.65;;;1.20;;
76113;SDS011;64845;53.086;5.834;2023-04-03T14:42:16;4.00;;;1.30;;
76113;SDS011;64845;53.086;5.834;2023-04-03T14:44:45;3.50;;;1.52;;
76113;SDS011;64845;53.086;5.834;2023-04-03T14:47:12;2.78;;;1.33;;
76113;SDS011;64845;53.086;5.834;2023-04-03T14:49:38;4.25;;;1.27;;
76113;SDS011;64845;53.086;5.834;2023-04-03T14:52:05;6.45;;;1.58;;
76113;SDS011;64845;53.086;5.834;2023-04-03T14:54:30;2.92;;;1.40;;
76113;SDS011;64845;53.086;5.834;2023-04-03T14:56:57;3.63;;;1.13;;
76113;SDS011;64845;53.086;5.834;2023-04-03T14:59:24;5.68;;;1.23;;
76113;SDS011;64845;53.086;5.834;2023-04-03T15:01:50;2.45;;;1.20;;
76113;SDS011;64845;53.086;5.834;2023-04-03T15:04:20;2.45;;;1.23;;
76113;SDS011;64845;53.086;5.834;2023-04-03T15:06:46;1.75;;;1.05;;
76113;SDS011;64845;53.086;5.834;2023-04-03T15:09:18;2.92;;;1.30;;
76113;SDS011;64845;53.086;5.834;2023-04-03T15:11:44;3.90;;;1.33;;
76113;SDS011;64845;53.086;5.834;2023-04-03T15:14:09;2.83;;;1.30;;
76113;SDS011;64845;53.086;5.834;2023-04-03T15:16:35;4.75;;;1.30;;
76113;SDS011;64845;53.086;5.834;2023-04-03T15:19:01;3.28;;;1.30;;
76113;SDS011;64845;53.086;5.834;2023-04-03T15:21:26;1.95;;;1.10;;
76113;SDS011;64845;53.086;5.834;2023-04-03T15:23:52;3.75;;;0.88;;
76113;SDS011;64845;53.086;5.834;2023-04-03T15:26:17;2.60;;;1.27;;
76113;SDS011;64845;53.086;5.834;2023-04-03T15:28:42;2.40;;;1.33;;
76113;SDS011;64845;53.086;5.834;2023-04-03T15:31:09;2.50;;;1.33;;
76113;SDS011;64845;53.086;5.834;2023-04-03T15:33:35;2.63;;;1.10;;
76113;SDS011;64845;53.086;5.834;2023-04-03T15:36:01;3.92;;;1.10;;
76113;SDS011;64845;53.086;5.834;2023-04-03T15:38:27;4.85;;;1.20;;
76113;SDS011;64845;53.086;5.834;2023-04-03T15:40:53;2.38;;;1.23;;
76113;SDS011;64845;53.086;5.834;2023-04-03T15:43:19;1.95;;;1.23;;
76113;SDS011;64845;53.086;5.834;2023-04-03T15:45:44;6.40;;;1.35;;
76113;SDS011;64845;53.086;5.834;2023-04-03T15:48:10;3.00;;;1.23;;
76113;SDS011;64845;53.086;5.834;2023-04-03T15:50:35;3.92;;;1.55;;
76113;SDS011;64845;53.086;5.834;2023-04-03T15:53:01;3.92;;;1.40;;
76113;SDS011;64845;53.086;5.834;2023-04-03T15:55:31;2.17;;;1.30;;
76113;SDS011;64845;53.086;5.834;2023-04-03T15:57:59;2.85;;;1.35;;
76113;SDS011;64845;53.086;5.834;2023-04-03T16:00:25;2.97;;;1.40;;
76113;SDS011;64845;53.086;5.834;2023-04-03T16:02:52;5.75;;;1.58;;
76113;SDS011;64845;53.086;5.834;2023-04-03T16:05:20;3.13;;;1.40;;
76113;SDS011;64845;53.086;5.834;2023-04-03T16:07:46;1.85;;;1.20;;
76113;SDS011;64845;53.086;5.834;2023-04-03T16:10:12;5.68;;;1.70;;
76113;SDS011;64845;53.086;5.834;2023-04-03T16:12:40;3.92;;;1.30;;
76113;SDS011;64845;53.086;5.834;2023-04-03T16:15:06;4.53;;;1.42;;
76113;SDS011;64845;53.086;5.834;2023-04-03T16:17:32;5.80;;;1.63;;
76113;SDS011;64845;53.086;5.834;2023-04-03T16:19:59;3.38;;;1.10;;
76113;SDS011;64845;53.086;5.834;2023-04-03T16:22:25;3.67;;;1.25;;
76113;SDS011;64845;53.086;5.834;2023-04-03T16:24:52;2.83;;;1.20;;
76113;SDS011;64845;53.086;5.834;2023-04-03T16:27:18;3.97;;;1.20;;
76113;SDS011;64845;53.086;5.834;2023-04-03T16:29:44;3.55;;;1.40;;
76113;SDS011;64845;53.086;5.834;2023-04-03T16:32:09;4.68;;;1.58;;
76113;SDS011;64845;53.086;5.834;2023-04-03T16:34:36;2.85;;;1.20;;
76113;SDS011;64845;53.086;5.834;2023-04-03T16:37:01;2.08;;;1.00;;
76113;SDS011;64845;53.086;5.834;2023-04-03T16:39:26;3.30;;;1.45;;
76113;SDS011;64845;53.086;5.834;2023-04-03T16:41:52;2.28;;;0.90;;